Terminal Aerodrome Forecast
Issued by NWS

Home | Current Version | Previous Version | Text Only | Print | Product List | Glossary On
Versions: 1 2 3 4 5 6 7 8 9 10 11 12 13 14 15 16 17 18 19 20 21 22 23 24 25 26 27 28 29 30 31 32 33 34 35 36 37 38 39 40 41 42 43 44 45 46 47 48 49 50
000
FTUS41 KRNK 302321
TAFBCB
TAF
KBCB 302321Z 3100/3124 19004KT P6SM SCT050
      TEMPO 3108/3112 3SM BR SCT005
     FM311400 23005KT P6SM VCSH SCT040 BKN080
     FM311900 19006KT P6SM SCT045 SCT070=

USA.gov is the U.S. government's official web portal to all federal, state and local government web resources and services.